sensor_id;sensor_type;location;lat;lon;timestamp;temperature;humidity
3678;DHT22;1855;50.934;6.958;2023-03-03T00:01:04;2.30;99.90
3678;DHT22;1855;50.934;6.958;2023-03-03T00:03:31;2.40;99.90
3678;DHT22;1855;50.934;6.958;2023-03-03T00:05:58;2.40;99.90
3678;DHT22;1855;50.934;6.958;2023-03-03T00:08:27;2.30;99.90
3678;DHT22;1855;50.934;6.958;2023-03-03T00:10:54;2.30;99.90
3678;DHT22;1855;50.934;6.958;2023-03-03T00:13:23;2.30;99.90
3678;DHT22;1855;50.934;6.958;2023-03-03T00:15:52;2.30;99.90
3678;DHT22;1855;50.934;6.958;2023-03-03T00:18:23;2.30;99.90
3678;DHT22;1855;50.934;6.958;2023-03-03T00:20:53;2.30;99.90
3678;DHT22;1855;50.934;6.958;2023-03-03T00:23:29;2.20;99.90
3678;DHT22;1855;50.934;6.958;2023-03-03T00:25:57;2.20;99.90
3678;DHT22;1855;50.934;6.958;2023-03-03T00:28:28;2.10;99.90
3678;DHT22;1855;50.934;6.958;2023-03-03T00:30:57;2.10;99.90
3678;DHT22;1855;50.934;6.958;2023-03-03T00:33:27;2.00;99.90
3678;DHT22;1855;50.934;6.958;2023-03-03T00:36:05;2.00;99.90
3678;DHT22;1855;50.934;6.958;2023-03-03T00:38:35;1.90;99.90
3678;DHT22;1855;50.934;6.958;2023-03-03T00:41:08;1.80;99.90
3678;DHT22;1855;50.934;6.958;2023-03-03T00:43:38;1.80;99.90
3678;DHT22;1855;50.934;6.958;2023-03-03T00:46:07;1.80;99.90
3678;DHT22;1855;50.934;6.958;2023-03-03T00:48:41;1.80;99.90
3678;DHT22;1855;50.934;6.958;2023-03-03T00:51:20;1.80;99.90
3678;DHT22;1855;50.934;6.958;2023-03-03T00:53:50;1.70;99.90
3678;DHT22;1855;50.934;6.958;2023-03-03T00:56:17;1.70;99.90
3678;DHT22;1855;50.934;6.958;2023-03-03T00:58:45;1.50;99.90
3678;DHT22;1855;50.934;6.958;2023-03-03T01:01:12;1.50;99.90
3678;DHT22;1855;50.934;6.958;2023-03-03T01:03:40;1.50;99.90
3678;DHT22;1855;50.934;6.958;2023-03-03T01:06:07;1.40;99.90
3678;DHT22;1855;50.934;6.958;2023-03-03T01:08:33;1.30;99.90
3678;DHT22;1855;50.934;6.958;2023-03-03T01:11:04;1.30;99.90
3678;DHT22;1855;50.934;6.958;2023-03-03T01:13:33;1.30;99.90
3678;DHT22;1855;50.934;6.958;2023-03-03T01:16:03;1.30;99.90
3678;DHT22;1855;50.934;6.958;2023-03-03T01:18:30;1.30;99.90
3678;DHT22;1855;50.934;6.958;2023-03-03T01:20:57;1.30;99.90
3678;DHT22;1855;50.934;6.958;2023-03-03T01:23:24;1.30;99.90
3678;DHT22;1855;50.934;6.958;2023-03-03T01:25:50;1.30;99.90
3678;DHT22;1855;50.934;6.958;2023-03-03T01:28:17;1.40;99.90
3678;DHT22;1855;50.934;6.958;2023-03-03T01:30:44;1.30;99.90
3678;DHT22;1855;50.934;6.958;2023-03-03T01:33:12;1.30;99.90
3678;DHT22;1855;50.934;6.958;2023-03-03T01:35:42;1.30;99.90
3678;DHT22;1855;50.934;6.958;2023-03-03T01:38:09;1.30;99.90
3678;DHT22;1855;50.934;6.958;2023-03-03T01:40:36;1.30;99.90
3678;DHT22;1855;50.934;6.958;2023-03-03T01:43:03;1.20;99.90
3678;DHT22;1855;50.934;6.958;2023-03-03T01:45:31;1.20;99.90
3678;DHT22;1855;50.934;6.958;2023-03-03T01:48:09;1.10;99.90
3678;DHT22;1855;50.934;6.958;2023-03-03T01:50:46;1.10;99.90
3678;DHT22;1855;50.934;6.958;2023-03-03T01:53:17;1.10;99.90
3678;DHT22;1855;50.934;6.958;2023-03-03T01:55:46;1.10;99.90
3678;DHT22;1855;50.934;6.958;2023-03-03T01:58:15;1.10;99.90
3678;DHT22;1855;50.934;6.958;2023-03-03T02:00:46;1.10;99.90
3678;DHT22;1855;50.934;6.958;2023-03-03T02:03:16;1.00;99.90
3678;DHT22;1855;50.934;6.958;2023-03-03T02:05:45;0.90;99.90
3678;DHT22;1855;50.934;6.958;2023-03-03T02:08:15;0.90;99.90
3678;DHT22;1855;50.934;6.958;2023-03-03T02:10:45;0.90;99.90
3678;DHT22;1855;50.934;6.958;2023-03-03T02:13:12;0.90;99.90
3678;DHT22;1855;50.934;6.958;2023-03-03T02:15:40;0.90;99.90
3678;DHT22;1855;50.934;6.958;2023-03-03T02:18:09;0.90;99.90
3678;DHT22;1855;50.934;6.958;2023-03-03T02:20:48;0.90;99.90
3678;DHT22;1855;50.934;6.958;2023-03-03T02:23:22;0.80;99.90
3678;DHT22;1855;50.934;6.958;2023-03-03T02:26:03;0.90;99.90
3678;DHT22;1855;50.934;6.958;2023-03-03T02:28:33;0.80;99.90
3678;DHT22;1855;50.934;6.958;2023-03-03T02:31:01;0.70;99.90
3678;DHT22;1855;50.934;6.958;2023-03-03T02:33:28;0.70;99.90
3678;DHT22;1855;50.934;6.958;2023-03-03T02:35:55;0.70;99.90
3678;DHT22;1855;50.934;6.958;2023-03-03T02:38:26;0.70;99.90
3678;DHT22;1855;50.934;6.958;2023-03-03T02:41:02;0.70;99.90
3678;DHT22;1855;50.934;6.958;2023-03-03T02:43:37;0.60;99.90
3678;DHT22;1855;50.934;6.958;2023-03-03T02:46:05;0.60;99.90
3678;DHT22;1855;50.934;6.958;2023-03-03T02:48:32;0.60;99.90
3678;DHT22;1855;50.934;6.958;2023-03-03T02:50:59;0.50;99.90
3678;DHT22;1855;50.934;6.958;2023-03-03T02:53:25;0.50;99.90
3678;DHT22;1855;50.934;6.958;2023-03-03T02:55:52;0.50;99.90
3678;DHT22;1855;50.934;6.958;2023-03-03T02:58:19;0.40;99.90
3678;DHT22;1855;50.934;6.958;2023-03-03T03:00:47;0.40;99.90
3678;DHT22;1855;50.934;6.958;2023-03-03T03:03:14;0.40;99.90
3678;DHT22;1855;50.934;6.958;2023-03-03T03:05:41;0.50;99.90
3678;DHT22;1855;50.934;6.958;2023-03-03T03:08:07;0.40;99.90
3678;DHT22;1855;50.934;6.958;2023-03-03T03:10:34;0.40;99.90
3678;DHT22;1855;50.934;6.958;2023-03-03T03:13:01;0.50;99.90
3678;DHT22;1855;50.934;6.958;2023-03-03T03:15:28;0.50;99.90
3678;DHT22;1855;50.934;6.958;2023-03-03T03:17:56;0.40;99.90
3678;DHT22;1855;50.934;6.958;2023-03-03T03:20:23;0.40;99.90
3678;DHT22;1855;50.934;6.958;2023-03-03T03:22:49;0.40;99.90
3678;DHT22;1855;50.934;6.958;2023-03-03T03:25:16;0.40;99.90
3678;DHT22;1855;50.934;6.958;2023-03-03T03:27:43;0.50;99.90
3678;DHT22;1855;50.934;6.958;2023-03-03T03:30:10;0.60;99.90
3678;DHT22;1855;50.934;6.958;2023-03-03T03:32:37;0.70;99.90
3678;DHT22;1855;50.934;6.958;2023-03-03T03:35:06;0.70;99.90
3678;DHT22;1855;50.934;6.958;2023-03-03T03:37:33;0.70;99.90
3678;DHT22;1855;50.934;6.958;2023-03-03T03:40:00;0.80;99.90
3678;DHT22;1855;50.934;6.958;2023-03-03T03:42:26;0.70;99.90
3678;DHT22;1855;50.934;6.958;2023-03-03T03:44:53;0.60;99.90
3678;DHT22;1855;50.934;6.958;2023-03-03T03:47:20;0.60;99.90
3678;DHT22;1855;50.934;6.958;2023-03-03T03:49:47;0.50;99.90
3678;DHT22;1855;50.934;6.958;2023-03-03T03:52:15;0.60;99.90
3678;DHT22;1855;50.934;6.958;2023-03-03T03:54:41;0.60;99.90
3678;DHT22;1855;50.934;6.958;2023-03-03T03:57:08;0.70;99.90
3678;DHT22;1855;50.934;6.958;2023-03-03T03:59:35;0.70;99.90
3678;DHT22;1855;50.934;6.958;2023-03-03T04:02:02;0.70;99.90
3678;DHT22;1855;50.934;6.958;2023-03-03T04:04:28;0.80;99.90
3678;DHT22;1855;50.934;6.958;2023-03-03T04:06:55;0.90;99.90
3678;DHT22;1855;50.934;6.958;2023-03-03T04:09:23;0.90;99.90
3678;DHT22;1855;50.934;6.958;2023-03-03T04:11:50;0.90;99.90
3678;DHT22;1855;50.934;6.958;2023-03-03T04:14:17;1.00;99.90
3678;DHT22;1855;50.934;6.958;2023-03-03T04:16:43;1.00;99.90
3678;DHT22;1855;50.934;6.958;2023-03-03T04:19:10;1.10;99.90
3678;DHT22;1855;50.934;6.958;2023-03-03T04:21:37;1.10;99.90
3678;DHT22;1855;50.934;6.958;2023-03-03T04:24:04;1.10;99.90
3678;DHT22;1855;50.934;6.958;2023-03-03T04:26:32;1.20;99.90
3678;DHT22;1855;50.934;6.958;2023-03-03T04:28:59;1.20;99.90
3678;DHT22;1855;50.934;6.958;2023-03-03T04:31:26;1.20;99.90
3678;DHT22;1855;50.934;6.958;2023-03-03T04:33:53;1.30;99.90
3678;DHT22;1855;50.934;6.958;2023-03-03T04:36:20;1.20;99.90
3678;DHT22;1855;50.934;6.958;2023-03-03T04:38:47;1.10;99.90
3678;DHT22;1855;50.934;6.958;2023-03-03T04:41:14;1.20;99.90
3678;DHT22;1855;50.934;6.958;2023-03-03T04:43:42;1.20;99.90
3678;DHT22;1855;50.934;6.958;2023-03-03T04:46:09;1.30;99.90
3678;DHT22;1855;50.934;6.958;2023-03-03T04:48:36;1.30;99.90
3678;DHT22;1855;50.934;6.958;2023-03-03T04:51:04;1.30;99.90
3678;DHT22;1855;50.934;6.958;2023-03-03T04:53:30;1.30;99.90
3678;DHT22;1855;50.934;6.958;2023-03-03T04:55:57;1.40;99.90
3678;DHT22;1855;50.934;6.958;2023-03-03T04:58:24;1.50;99.90
3678;DHT22;1855;50.934;6.958;2023-03-03T05:00:55;1.50;99.90
3678;DHT22;1855;50.934;6.958;2023-03-03T05:03:22;1.50;99.90
3678;DHT22;1855;50.934;6.958;2023-03-03T05:05:51;1.60;99.90
3678;DHT22;1855;50.934;6.958;2023-03-03T05:08:18;1.60;99.90
3678;DHT22;1855;50.934;6.958;2023-03-03T05:10:45;1.60;99.90
3678;DHT22;1855;50.934;6.958;2023-03-03T05:13:12;1.60;99.90
3678;DHT22;1855;50.934;6.958;2023-03-03T05:15:39;1.50;99.90
3678;DHT22;1855;50.934;6.958;2023-03-03T05:18:08;1.50;99.90
3678;DHT22;1855;50.934;6.958;2023-03-03T05:20:36;1.50;99.90
3678;DHT22;1855;50.934;6.958;2023-03-03T05:23:05;1.50;99.90
3678;DHT22;1855;50.934;6.958;2023-03-03T05:25:32;1.60;99.90
3678;DHT22;1855;50.934;6.958;2023-03-03T05:27:58;1.60;99.90
3678;DHT22;1855;50.934;6.958;2023-03-03T05:30:25;1.50;99.90
3678;DHT22;1855;50.934;6.958;2023-03-03T05:32:52;1.50;99.90
3678;DHT22;1855;50.934;6.958;2023-03-03T05:35:20;1.50;99.90
3678;DHT22;1855;50.934;6.958;2023-03-03T05:37:47;1.50;99.90
3678;DHT22;1855;50.934;6.958;2023-03-03T05:40:14;1.50;99.90
3678;DHT22;1855;50.934;6.958;2023-03-03T05:42:42;1.50;99.90
3678;DHT22;1855;50.934;6.958;2023-03-03T05:45:09;1.50;99.90
3678;DHT22;1855;50.934;6.958;2023-03-03T05:47:37;1.50;99.90
3678;DHT22;1855;50.934;6.958;2023-03-03T05:50:04;1.50;99.90
3678;DHT22;1855;50.934;6.958;2023-03-03T05:52:32;1.50;99.90
3678;DHT22;1855;50.934;6.958;2023-03-03T05:54:59;1.60;99.90
3678;DHT22;1855;50.934;6.958;2023-03-03T05:57:26;1.60;99.90
3678;DHT22;1855;50.934;6.958;2023-03-03T05:59:52;1.60;99.90
3678;DHT22;1855;50.934;6.958;2023-03-03T06:02:19;1.60;99.90
3678;DHT22;1855;50.934;6.958;2023-03-03T06:04:46;1.60;99.90
3678;DHT22;1855;50.934;6.958;2023-03-03T06:07:13;1.60;99.90
3678;DHT22;1855;50.934;6.958;2023-03-03T06:09:41;1.70;99.90
3678;DHT22;1855;50.934;6.958;2023-03-03T06:12:08;1.70;99.90
3678;DHT22;1855;50.934;6.958;2023-03-03T06:14:34;1.70;99.90
3678;DHT22;1855;50.934;6.958;2023-03-03T06:17:01;1.70;99.90
3678;DHT22;1855;50.934;6.958;2023-03-03T06:19:28;1.70;99.90
3678;DHT22;1855;50.934;6.958;2023-03-03T06:21:55;1.70;99.90
3678;DHT22;1855;50.934;6.958;2023-03-03T06:24:22;1.70;99.90
3678;DHT22;1855;50.934;6.958;2023-03-03T06:26:51;1.60;99.90
3678;DHT22;1855;50.934;6.958;2023-03-03T06:29:17;1.70;99.90
3678;DHT22;1855;50.934;6.958;2023-03-03T06:31:44;1.70;99.90
3678;DHT22;1855;50.934;6.958;2023-03-03T06:34:11;1.70;99.90
3678;DHT22;1855;50.934;6.958;2023-03-03T06:36:38;1.70;99.90
3678;DHT22;1855;50.934;6.958;2023-03-03T06:39:06;1.70;99.90
3678;DHT22;1855;50.934;6.958;2023-03-03T06:41:33;1.70;99.90
3678;DHT22;1855;50.934;6.958;2023-03-03T06:44:01;1.80;99.90
3678;DHT22;1855;50.934;6.958;2023-03-03T06:46:28;1.80;99.90
3678;DHT22;1855;50.934;6.958;2023-03-03T06:48:55;1.80;99.90
3678;DHT22;1855;50.934;6.958;2023-03-03T06:51:23;1.80;99.90
3678;DHT22;1855;50.934;6.958;2023-03-03T06:53:54;1.80;99.90
3678;DHT22;1855;50.934;6.958;2023-03-03T06:56:23;1.80;99.90
3678;DHT22;1855;50.934;6.958;2023-03-03T06:58:53;1.90;99.90
3678;DHT22;1855;50.934;6.958;2023-03-03T17:52:41;3.00;96.80
3678;DHT22;1855;50.934;6.958;2023-03-03T17:55:32;3.00;97.30
3678;DHT22;1855;50.934;6.958;2023-03-03T17:58:23;3.00;97.70
3678;DHT22;1855;50.934;6.958;2023-03-03T18:01:06;2.90;97.80
3678;DHT22;1855;50.934;6.958;2023-03-03T18:04:04;2.80;98.20
3678;DHT22;1855;50.934;6.958;2023-03-03T18:07:07;2.80;98.50
3678;DHT22;1855;50.934;6.958;2023-03-03T18:09:47;2.80;98.80
3678;DHT22;1855;50.934;6.958;2023-03-03T18:12:25;2.80;98.70
3678;DHT22;1855;50.934;6.958;2023-03-03T18:15:16;2.70;99.10
3678;DHT22;1855;50.934;6.958;2023-03-03T18:18:02;2.60;99.10
3678;DHT22;1855;50.934;6.958;2023-03-03T18:20:52;2.60;99.40
3678;DHT22;1855;50.934;6.958;2023-03-03T18:23:33;2.60;99.60
3678;DHT22;1855;50.934;6.958;2023-03-03T18:26:31;2.60;99.60
3678;DHT22;1855;50.934;6.958;2023-03-03T18:29:19;2.50;99.90
3678;DHT22;1855;50.934;6.958;2023-03-03T18:31:49;2.50;99.90
3678;DHT22;1855;50.934;6.958;2023-03-03T18:34:43;2.50;99.90
3678;DHT22;1855;50.934;6.958;2023-03-03T18:37:34;2.40;99.90
3678;DHT22;1855;50.934;6.958;2023-03-03T18:40:26;2.40;99.90
3678;DHT22;1855;50.934;6.958;2023-03-03T18:42:56;2.40;99.90
3678;DHT22;1855;50.934;6.958;2023-03-03T18:45:48;2.30;99.90
3678;DHT22;1855;50.934;6.958;2023-03-03T18:48:15;2.30;99.90
3678;DHT22;1855;50.934;6.958;2023-03-03T18:50:45;2.30;99.90
3678;DHT22;1855;50.934;6.958;2023-03-03T18:53:20;2.30;99.90
3678;DHT22;1855;50.934;6.958;2023-03-03T18:55:48;2.20;99.90
3678;DHT22;1855;50.934;6.958;2023-03-03T18:58:42;2.20;99.90
3678;DHT22;1855;50.934;6.958;2023-03-03T19:01:39;2.10;99.90
3678;DHT22;1855;50.934;6.958;2023-03-03T19:04:21;2.10;99.90
3678;DHT22;1855;50.934;6.958;2023-03-03T19:07:12;2.10;99.90
3678;DHT22;1855;50.934;6.958;2023-03-03T19:09:49;2.00;99.90
3678;DHT22;1855;50.934;6.958;2023-03-03T19:12:45;2.10;99.90
3678;DHT22;1855;50.934;6.958;2023-03-03T19:15:43;2.00;99.90
3678;DHT22;1855;50.934;6.958;2023-03-03T19:18:14;2.00;99.90
3678;DHT22;1855;50.934;6.958;2023-03-03T19:20:44;2.00;99.90
3678;DHT22;1855;50.934;6.958;2023-03-03T19:23:14;1.90;99.90
3678;DHT22;1855;50.934;6.958;2023-03-03T19:25:41;1.90;99.90
3678;DHT22;1855;50.934;6.958;2023-03-03T19:28:24;1.80;99.90
3678;DHT22;1855;50.934;6.958;2023-03-03T19:30:57;1.70;99.90
3678;DHT22;1855;50.934;6.958;2023-03-03T19:33:39;1.70;99.90
3678;DHT22;1855;50.934;6.958;2023-03-03T19:36:18;1.70;99.90
3678;DHT22;1855;50.934;6.958;2023-03-03T19:39:00;1.70;99.90
3678;DHT22;1855;50.934;6.958;2023-03-03T19:41:42;1.60;99.90
3678;DHT22;1855;50.934;6.958;2023-03-03T19:44:25;1.60;99.90
3678;DHT22;1855;50.934;6.958;2023-03-03T19:46:59;1.60;99.90
3678;DHT22;1855;50.934;6.958;2023-03-03T19:49:46;1.50;99.90
3678;DHT22;1855;50.934;6.958;2023-03-03T19:52:22;1.50;99.90
3678;DHT22;1855;50.934;6.958;2023-03-03T19:55:05;1.50;99.90
3678;DHT22;1855;50.934;6.958;2023-03-03T19:57:47;1.60;99.90
3678;DHT22;1855;50.934;6.958;2023-03-03T20:00:22;1.60;99.90
3678;DHT22;1855;50.934;6.958;2023-03-03T20:03:26;1.60;99.90
3678;DHT22;1855;50.934;6.958;2023-03-03T20:06:06;1.60;99.90
3678;DHT22;1855;50.934;6.958;2023-03-03T20:08:40;1.60;99.90
3678;DHT22;1855;50.934;6.958;2023-03-03T20:11:16;1.50;99.90
3678;DHT22;1855;50.934;6.958;2023-03-03T20:13:52;1.50;99.90
3678;DHT22;1855;50.934;6.958;2023-03-03T20:16:31;1.50;99.90
3678;DHT22;1855;50.934;6.958;2023-03-03T20:19:13;1.50;99.90
3678;DHT22;1855;50.934;6.958;2023-03-03T20:21:46;1.50;99.90
3678;DHT22;1855;50.934;6.958;2023-03-03T20:24:36;1.50;99.90
3678;DHT22;1855;50.934;6.958;2023-03-03T20:27:06;1.40;99.90
3678;DHT22;1855;50.934;6.958;2023-03-03T20:30:01;1.40;99.90
3678;DHT22;1855;50.934;6.958;2023-03-03T20:32:42;1.50;99.90
3678;DHT22;1855;50.934;6.958;2023-03-03T20:35:24;1.60;99.90
3678;DHT22;1855;50.934;6.958;2023-03-03T20:38:02;1.60;99.90
3678;DHT22;1855;50.934;6.958;2023-03-03T20:40:36;1.60;99.90
3678;DHT22;1855;50.934;6.958;2023-03-03T20:43:15;1.70;99.90
3678;DHT22;1855;50.934;6.958;2023-03-03T20:45:50;1.80;99.90
3678;DHT22;1855;50.934;6.958;2023-03-03T20:48:36;1.80;99.90
3678;DHT22;1855;50.934;6.958;2023-03-03T20:51:11;1.90;99.90
3678;DHT22;1855;50.934;6.958;2023-03-03T20:53:44;2.00;99.90
3678;DHT22;1855;50.934;6.958;2023-03-03T20:56:17;2.00;99.90
3678;DHT22;1855;50.934;6.958;2023-03-03T20:58:59;2.10;99.90
3678;DHT22;1855;50.934;6.958;2023-03-03T21:01:33;2.20;99.90
3678;DHT22;1855;50.934;6.958;2023-03-03T21:04:18;2.20;99.90
3678;DHT22;1855;50.934;6.958;2023-03-03T21:06:47;2.20;99.90
3678;DHT22;1855;50.934;6.958;2023-03-03T21:09:26;2.20;99.90
3678;DHT22;1855;50.934;6.958;2023-03-03T21:11:54;2.30;99.90
3678;DHT22;1855;50.934;6.958;2023-03-03T21:14:23;2.30;99.90
3678;DHT22;1855;50.934;6.958;2023-03-03T21:16:51;2.30;99.90
3678;DHT22;1855;50.934;6.958;2023-03-03T21:19:26;2.40;99.90
3678;DHT22;1855;50.934;6.958;2023-03-03T21:21:54;2.40;99.90
3678;DHT22;1855;50.934;6.958;2023-03-03T21:24:21;2.40;99.90
3678;DHT22;1855;50.934;6.958;2023-03-03T21:26:51;2.40;99.90
3678;DHT22;1855;50.934;6.958;2023-03-03T21:29:20;2.40;99.90
3678;DHT22;1855;50.934;6.958;2023-03-03T21:31:48;2.40;99.90
3678;DHT22;1855;50.934;6.958;2023-03-03T21:34:23;2.50;99.90
3678;DHT22;1855;50.934;6.958;2023-03-03T21:36:50;2.60;99.90
3678;DHT22;1855;50.934;6.958;2023-03-03T21:39:25;2.70;99.90
3678;DHT22;1855;50.934;6.958;2023-03-03T21:41:54;2.70;99.90
3678;DHT22;1855;50.934;6.958;2023-03-03T21:44:32;2.80;99.90
3678;DHT22;1855;50.934;6.958;2023-03-03T21:47:00;2.80;99.90
3678;DHT22;1855;50.934;6.958;2023-03-03T21:49:27;2.80;99.90
3678;DHT22;1855;50.934;6.958;2023-03-03T21:51:55;2.90;99.90
3678;DHT22;1855;50.934;6.958;2023-03-03T21:54:23;2.90;99.90
3678;DHT22;1855;50.934;6.958;2023-03-03T21:56:50;2.90;99.50
3678;DHT22;1855;50.934;6.958;2023-03-03T21:59:17;2.90;99.70
3678;DHT22;1855;50.934;6.958;2023-03-03T22:01:45;3.00;99.90
3678;DHT22;1855;50.934;6.958;2023-03-03T22:04:11;3.10;99.70
3678;DHT22;1855;50.934;6.958;2023-03-03T22:06:38;3.10;99.40
3678;DHT22;1855;50.934;6.958;2023-03-03T22:09:06;3.20;99.20
3678;DHT22;1855;50.934;6.958;2023-03-03T22:11:34;3.20;99.20
3678;DHT22;1855;50.934;6.958;2023-03-03T22:14:00;3.30;99.20
3678;DHT22;1855;50.934;6.958;2023-03-03T22:16:27;3.30;99.00
3678;DHT22;1855;50.934;6.958;2023-03-03T22:18:54;3.30;98.60
3678;DHT22;1855;50.934;6.958;2023-03-03T22:21:21;3.30;98.50
3678;DHT22;1855;50.934;6.958;2023-03-03T22:23:47;3.30;98.40
3678;DHT22;1855;50.934;6.958;2023-03-03T22:26:14;3.20;98.20
3678;DHT22;1855;50.934;6.958;2023-03-03T22:28:42;3.20;98.40
3678;DHT22;1855;50.934;6.958;2023-03-03T22:31:09;3.20;98.40
3678;DHT22;1855;50.934;6.958;2023-03-03T22:33:36;3.20;98.50
3678;DHT22;1855;50.934;6.958;2023-03-03T22:36:06;3.20;98.40
3678;DHT22;1855;50.934;6.958;2023-03-03T22:38:36;3.20;98.40
3678;DHT22;1855;50.934;6.958;2023-03-03T22:41:03;3.20;98.40
3678;DHT22;1855;50.934;6.958;2023-03-03T22:43:29;3.10;98.30
3678;DHT22;1855;50.934;6.958;2023-03-03T22:45:58;3.10;98.70
3678;DHT22;1855;50.934;6.958;2023-03-03T22:48:26;3.20;98.80
3678;DHT22;1855;50.934;6.958;2023-03-03T22:50:53;3.20;98.60
3678;DHT22;1855;50.934;6.958;2023-03-03T22:53:20;3.10;98.40
3678;DHT22;1855;50.934;6.958;2023-03-03T22:55:47;3.20;98.40
3678;DHT22;1855;50.934;6.958;2023-03-03T22:58:15;3.20;98.30
3678;DHT22;1855;50.934;6.958;2023-03-03T23:00:44;3.10;98.50
3678;DHT22;1855;50.934;6.958;2023-03-03T23:03:12;3.10;98.50
3678;DHT22;1855;50.934;6.958;2023-03-03T23:05:39;3.10;98.40
3678;DHT22;1855;50.934;6.958;2023-03-03T23:08:08;3.00;98.60
3678;DHT22;1855;50.934;6.958;2023-03-03T23:10:36;3.10;98.90
3678;DHT22;1855;50.934;6.958;2023-03-03T23:13:03;3.10;98.60
3678;DHT22;1855;50.934;6.958;2023-03-03T23:15:30;3.10;98.70
3678;DHT22;1855;50.934;6.958;2023-03-03T23:17:56;3.10;98.80
3678;DHT22;1855;50.934;6.958;2023-03-03T23:20:26;3.10;98.50
3678;DHT22;1855;50.934;6.958;2023-03-03T23:22:53;3.10;98.40
3678;DHT22;1855;50.934;6.958;2023-03-03T23:25:21;3.00;98.60
3678;DHT22;1855;50.934;6.958;2023-03-03T23:27:48;3.00;98.80
3678;DHT22;1855;50.934;6.958;2023-03-03T23:30:16;3.00;98.80
3678;DHT22;1855;50.934;6.958;2023-03-03T23:32:43;3.00;98.90
3678;DHT22;1855;50.934;6.958;2023-03-03T23:35:10;3.00;98.80
3678;DHT22;1855;50.934;6.958;2023-03-03T23:37:38;3.00;98.80
3678;DHT22;1855;50.934;6.958;2023-03-03T23:40:06;3.00;99.00
3678;DHT22;1855;50.934;6.958;2023-03-03T23:42:34;3.00;98.80
3678;DHT22;1855;50.934;6.958;2023-03-03T23:45:00;3.00;99.10
3678;DHT22;1855;50.934;6.958;2023-03-03T23:47:27;3.00;99.20
3678;DHT22;1855;50.934;6.958;2023-03-03T23:49:54;3.10;99.20
3678;DHT22;1855;50.934;6.958;2023-03-03T23:52:21;3.10;99.20
3678;DHT22;1855;50.934;6.958;2023-03-03T23:54:49;3.10;99.00
3678;DHT22;1855;50.934;6.958;2023-03-03T23:57:17;3.10;98.90
3678;DHT22;1855;50.934;6.958;2023-03-03T23:59:44;3.10;98.80
